createdAt,value
2022-09-07T00:01:12.448Z,97994.90
2022-09-07T00:03:40.560Z,97991.58
2022-09-07T00:06:10.999Z,97994.41
2022-09-07T00:08:40.918Z,97987.75
2022-09-07T00:11:14.224Z,97989.46
2022-09-07T00:13:44.160Z,97987.59
2022-09-07T00:16:18.586Z,97985.00
2022-09-07T00:18:46.983Z,97985.16
2022-09-07T00:21:17.775Z,97989.38
2022-09-07T00:23:47.928Z,97987.91
2022-09-07T00:26:22.320Z,97984.02
2022-09-07T00:28:53.150Z,97981.77
2022-09-07T00:31:24.379Z,97980.15
2022-09-07T00:33:53.821Z,97981.20
2022-09-07T00:36:22.770Z,97982.15
2022-09-07T00:38:51.769Z,97982.98
2022-09-07T00:41:22.343Z,97980.30
2022-09-07T00:43:56.341Z,97975.23
2022-09-07T00:46:32.073Z,97975.38
2022-09-07T00:49:17.393Z,97975.82
2022-09-07T00:52:12.899Z,97975.42
2022-09-07T00:54:45.770Z,97971.04
2022-09-07T00:57:14.523Z,97963.54
2022-09-07T00:59:47.979Z,97960.85
2022-09-07T01:02:17.711Z,97966.70
2022-09-07T01:04:53.553Z,97967.60
2022-09-07T01:07:22.021Z,97968.47
2022-09-07T01:09:50.968Z,97970.27
2022-09-07T01:12:18.972Z,97966.95
2022-09-07T01:14:50.721Z,97971.73
2022-09-07T01:17:36.568Z,97971.63
2022-09-07T01:20:19.178Z,97978.86
2022-09-07T01:22:53.660Z,97983.98
2022-09-07T01:25:27.659Z,97981.58
2022-09-07T01:28:19.212Z,97976.06
2022-09-07T01:31:07.405Z,97983.27
2022-09-07T01:34:11.491Z,97987.29
2022-09-07T01:36:50.670Z,97984.57
2022-09-07T01:39:22.182Z,97976.94
2022-09-07T01:42:01.557Z,97974.89
2022-09-07T01:44:41.648Z,97973.39
2022-09-07T01:47:17.668Z,97972.81
2022-09-07T01:49:57.046Z,97971.08
2022-09-07T01:52:37.319Z,97970.75
2022-09-07T01:55:19.388Z,97971.52
2022-09-07T01:58:23.120Z,97972.21
2022-09-07T02:01:00.246Z,97967.90
2022-09-07T02:03:34.579Z,97959.54
2022-09-07T02:06:12.445Z,97957.47
2022-09-07T02:09:00.575Z,97958.94
2022-09-07T02:11:44.700Z,97955.70
2022-09-07T02:14:24.582Z,97951.53
2022-09-07T02:17:00.978Z,97954.61
2022-09-07T02:19:39.398Z,97958.05
2022-09-07T02:22:13.839Z,97958.06
2022-09-07T02:24:47.402Z,97970.33
2022-09-07T02:27:19.544Z,97996.52
2022-09-07T02:29:47.757Z,98047.59
2022-09-07T02:32:15.780Z,98061.60
2022-09-07T02:34:44.163Z,98035.09
2022-09-07T02:37:15.502Z,98018.02
2022-09-07T02:39:43.956Z,98042.63
2022-09-07T02:42:12.147Z,98017.41
2022-09-07T02:44:42.646Z,98011.84
2022-09-07T02:47:29.979Z,98018.61
2022-09-07T02:50:10.137Z,98021.30
2022-09-07T02:52:56.501Z,98026.30
2022-09-07T02:55:45.933Z,98009.58
2022-09-07T02:58:29.800Z,98002.48
2022-09-07T03:01:09.982Z,98004.41
2022-09-07T03:03:44.062Z,97996.91
2022-09-07T03:06:23.868Z,97995.34
2022-09-07T03:08:55.990Z,97993.06
2022-09-07T03:11:24.967Z,97989.52
2022-09-07T03:13:53.111Z,97988.67
2022-09-07T03:16:21.217Z,97988.06
2022-09-07T03:18:49.996Z,97980.89
2022-09-07T03:21:18.429Z,97977.96
2022-09-07T03:23:51.174Z,97979.55
2022-09-07T03:26:27.211Z,97980.94
2022-09-07T03:28:55.276Z,97981.69
2022-09-07T03:31:23.566Z,97980.59
2022-09-07T03:33:51.811Z,97986.84
2022-09-07T03:36:19.872Z,97987.46
2022-09-07T03:38:48.055Z,97987.37
2022-09-07T03:41:16.647Z,97991.16
2022-09-07T03:43:44.931Z,97991.00
2022-09-07T03:46:15.243Z,97985.18
2022-09-07T03:48:43.827Z,97986.46
2022-09-07T03:51:14.361Z,97983.42
2022-09-07T03:53:45.377Z,97985.09
2022-09-07T03:56:20.817Z,97984.67
2022-09-07T03:58:50.562Z,97992.41
2022-09-07T04:01:24.817Z,97994.23
2022-09-07T04:03:53.477Z,97994.99
2022-09-07T04:06:21.691Z,97996.27
2022-09-07T04:08:50.009Z,97995.23
2022-09-07T04:11:19.200Z,97998.56
2022-09-07T04:13:47.340Z,97996.31
2022-09-07T04:16:18.149Z,97998.94
2022-09-07T04:18:47.366Z,98001.63
2022-09-07T04:21:16.827Z,98001.30
2022-09-07T04:23:45.717Z,97998.27
2022-09-07T04:26:22.394Z,98000.37
2022-09-07T04:28:54.630Z,98016.02
2022-09-07T04:31:24.580Z,98030.44
2022-09-07T04:33:54.555Z,98036.16
2022-09-07T04:36:24.949Z,98042.63
2022-09-07T04:38:59.638Z,98040.70
2022-09-07T04:41:29.468Z,98048.81
2022-09-07T04:44:00.154Z,98051.70
2022-09-07T04:46:30.649Z,98049.21
2022-09-07T04:49:01.942Z,98049.37
2022-09-07T04:51:32.683Z,98047.71
2022-09-07T04:54:03.981Z,98048.09
2022-09-07T04:56:33.508Z,98050.02
2022-09-07T04:59:05.252Z,98053.38
2022-09-07T05:01:34.421Z,98052.42
2022-09-07T05:04:05.245Z,98057.06
2022-09-07T05:06:34.989Z,98053.52
2022-09-07T05:09:03.682Z,98047.95
2022-09-07T05:11:32.012Z,98047.88
2022-09-07T05:14:01.947Z,98046.02
2022-09-07T05:16:32.164Z,98043.88
2022-09-07T05:19:03.233Z,98046.08
2022-09-07T05:21:34.098Z,98050.02
2022-09-07T05:24:02.829Z,98046.55
2022-09-07T05:26:33.913Z,98036.19
2022-09-07T05:31:55.071Z,98038.69
2022-09-07T05:34:32.323Z,98039.16
2022-09-07T05:37:02.177Z,98041.98
2022-09-07T05:39:31.419Z,98049.05
2022-09-07T05:42:01.199Z,98049.85
2022-09-07T05:44:46.291Z,98045.85
2022-09-07T05:47:15.102Z,98047.98
2022-09-07T05:49:43.408Z,98046.55
2022-09-07T05:52:11.738Z,98044.77
2022-09-07T05:54:40.521Z,98048.23
2022-09-07T05:57:13.013Z,98054.64
2022-09-07T05:59:42.104Z,98063.73
2022-09-07T06:02:15.240Z,98073.54
2022-09-07T06:04:45.906Z,98079.42
2022-09-07T06:07:22.995Z,98087.48
2022-09-07T06:12:39.692Z,98080.05
2022-09-07T06:15:08.401Z,98091.44
2022-09-07T06:17:36.659Z,98103.77
2022-09-07T06:20:07.049Z,98107.25
2022-09-07T06:22:36.795Z,98103.86
2022-09-07T06:25:05.879Z,98108.38
2022-09-07T06:27:34.444Z,98116.45
2022-09-07T06:30:03.148Z,98115.98
2022-09-07T06:32:46.842Z,98109.21
2022-09-07T06:35:15.976Z,98106.42
2022-09-07T06:37:44.742Z,98094.39
2022-09-07T06:40:13.380Z,98094.16
2022-09-07T06:42:41.660Z,98092.55
2022-09-07T06:45:12.101Z,98084.09
2022-09-07T06:47:41.027Z,98075.77
2022-09-07T06:50:10.040Z,98079.81
2022-09-07T06:55:28.013Z,98089.27
2022-09-07T06:57:56.411Z,98091.20
2022-09-07T07:00:24.892Z,98102.14
2022-09-07T07:02:53.635Z,98120.85
2022-09-07T07:05:22.130Z,98126.89
2022-09-07T07:07:50.239Z,98127.79
2022-09-07T07:10:23.676Z,98133.89
2022-09-07T07:12:57.649Z,98127.60
2022-09-07T07:15:28.544Z,98128.80
2022-09-07T07:18:05.997Z,98133.80
2022-09-07T07:20:46.414Z,98130.80
2022-09-07T07:23:15.175Z,98131.74
2022-09-07T07:25:43.862Z,98128.83
2022-09-07T07:31:05.974Z,98127.48
2022-09-07T07:33:38.144Z,98130.79
2022-09-07T07:36:27.059Z,98131.49
2022-09-07T07:44:20.799Z,98115.98
2022-09-07T07:46:50.510Z,98113.46
2022-09-07T07:49:19.246Z,98114.54
2022-09-07T07:54:37.091Z,98113.23
2022-09-07T07:57:06.084Z,98110.34
2022-09-07T07:59:35.257Z,98102.10
2022-09-07T08:02:05.548Z,98096.65
2022-09-07T08:04:34.944Z,98093.96
2022-09-07T08:07:09.473Z,98095.60
2022-09-07T08:09:47.680Z,98090.17
2022-09-07T08:12:21.454Z,98089.81
2022-09-07T08:14:49.877Z,98087.27
2022-09-07T08:17:18.530Z,98081.96
2022-09-07T08:19:47.633Z,98081.33
2022-09-07T08:22:18.367Z,98079.73
2022-09-07T08:24:46.522Z,98082.24
2022-09-07T08:27:18.038Z,98080.42
2022-09-07T08:29:46.878Z,98087.69
2022-09-07T08:32:18.632Z,98085.76
2022-09-07T08:34:47.383Z,98089.04
2022-09-07T08:37:15.910Z,98094.48
2022-09-07T08:39:44.332Z,98101.86
2022-09-07T08:42:45.455Z,98100.59
2022-09-07T08:45:52.321Z,98100.84
2022-09-07T08:48:32.728Z,98107.29
2022-09-07T08:51:35.194Z,98104.08
2022-09-07T08:54:05.748Z,98101.89
2022-09-07T08:57:20.453Z,98098.00
2022-09-07T08:59:46.833Z,98108.41
2022-09-07T09:02:38.504Z,98109.38
2022-09-07T09:05:34.621Z,98102.27
2022-09-07T09:08:27.894Z,98101.14
2022-09-07T09:11:17.046Z,98099.17
2022-09-07T09:14:10.087Z,98089.77
2022-09-07T09:16:46.047Z,98086.60
2022-09-07T09:19:55.612Z,98087.95
2022-09-07T09:22:28.683Z,98078.23
2022-09-07T09:25:16.117Z,98070.23
2022-09-07T09:27:46.918Z,98070.04
2022-09-07T09:30:23.704Z,98070.80
2022-09-07T09:33:11.936Z,98075.56
2022-09-07T09:35:41.509Z,98067.79
2022-09-07T09:38:46.317Z,98068.70
2022-09-07T09:41:15.967Z,98073.56
2022-09-07T09:43:54.430Z,98076.80
2022-09-07T09:46:28.419Z,98076.56
2022-09-07T09:49:00.500Z,98068.67
2022-09-07T09:54:45.785Z,98070.92
2022-09-07T09:57:18.053Z,98079.53
2022-09-07T10:00:10.941Z,98075.13
2022-09-07T10:05:37.387Z,98069.80
2022-09-07T10:08:28.852Z,98069.98
2022-09-07T10:11:05.189Z,98065.39
2022-09-07T10:13:35.655Z,98066.60
2022-09-07T10:16:09.742Z,98066.25
2022-09-07T10:18:41.199Z,98064.02
2022-09-07T10:21:18.433Z,98061.47
2022-09-07T10:23:49.490Z,98061.21
2022-09-07T10:26:28.201Z,98057.09
2022-09-07T10:29:14.980Z,98059.65
2022-09-07T10:31:57.131Z,98054.23
2022-09-07T10:34:52.049Z,98047.33
2022-09-07T10:37:42.422Z,98053.14
2022-09-07T10:40:38.074Z,98039.71
2022-09-07T10:43:23.283Z,98029.35
2022-09-07T10:49:34.498Z,98012.34
2022-09-07T10:52:35.855Z,98011.60
2022-09-07T10:55:07.623Z,98004.42
2022-09-07T10:58:00.071Z,97998.64
2022-09-07T11:00:38.397Z,97997.17
2022-09-07T11:03:27.893Z,97992.23
2022-09-07T11:06:55.185Z,97984.44
2022-09-07T11:09:29.410Z,97971.36
2022-09-07T11:12:08.709Z,97968.26
2022-09-07T11:15:35.988Z,97958.67
2022-09-07T11:18:21.177Z,97951.55
2022-09-07T11:21:01.064Z,97950.32
2022-09-07T11:23:41.729Z,97935.58
2022-09-07T11:26:36.327Z,97930.67
2022-09-07T11:29:31.017Z,97929.79
2022-09-07T11:32:12.259Z,97926.83
2022-09-07T11:34:53.998Z,97926.89
2022-09-07T11:37:37.784Z,97926.33
2022-09-07T11:40:21.681Z,97925.48
2022-09-07T11:43:16.532Z,97921.65
2022-09-07T11:45:48.331Z,97916.28
2022-09-07T11:48:30.848Z,97909.92
2022-09-07T11:51:03.765Z,97910.34
2022-09-07T11:53:39.410Z,97906.24
2022-09-07T11:56:14.336Z,97901.09
2022-09-07T11:59:01.660Z,97897.44
2022-09-07T12:02:03.997Z,97896.01
2022-09-07T12:04:56.366Z,97886.70
2022-09-07T12:07:48.869Z,97885.15
2022-09-07T12:10:33.271Z,97884.52
2022-09-07T12:13:20.678Z,97881.69
2022-09-07T12:15:52.254Z,97879.75
2022-09-07T12:18:35.720Z,97877.34
2022-09-07T12:21:04.186Z,97882.13
2022-09-07T12:27:05.434Z,97872.92
2022-09-07T12:29:45.111Z,97869.38
2022-09-07T12:32:54.627Z,97869.19
2022-09-07T12:35:43.195Z,97865.36
2022-09-07T12:38:18.574Z,97866.73
2022-09-07T12:40:55.693Z,97867.66
2022-09-07T12:43:27.692Z,97863.81
2022-09-07T12:46:36.545Z,97857.08
2022-09-07T12:49:31.702Z,97856.09
2022-09-07T12:52:41.800Z,97852.17
2022-09-07T12:58:42.834Z,97849.78
2022-09-07T13:02:00.654Z,97846.73
2022-09-07T13:05:06.321Z,97839.96
2022-09-07T13:08:14.110Z,97840.61
2022-09-07T13:10:56.138Z,97841.66
2022-09-07T13:16:29.543Z,97845.45
2022-09-07T13:19:01.907Z,97846.11
2022-09-07T13:21:38.230Z,97846.30
2022-09-07T13:27:27.018Z,97844.40
2022-09-07T13:30:20.324Z,97846.56
2022-09-07T13:35:45.936Z,97848.35
2022-09-07T13:38:16.817Z,97845.73
2022-09-07T13:40:50.495Z,97839.45
2022-09-07T13:43:22.230Z,97840.21
2022-09-07T13:45:55.419Z,97838.32
2022-09-07T13:48:46.871Z,97834.34
2022-09-07T13:51:34.166Z,97828.09
2022-09-07T13:54:22.644Z,97828.27
2022-09-07T13:57:39.834Z,97835.66
2022-09-07T14:00:15.268Z,97836.16
2022-09-07T14:02:43.974Z,97834.91
2022-09-07T14:05:18.817Z,97836.36
2022-09-07T14:07:47.780Z,97837.86
2022-09-07T14:10:20.832Z,97834.23
2022-09-07T14:12:53.289Z,97831.38
2022-09-07T14:15:44.067Z,97830.15
2022-09-07T14:18:18.557Z,97827.50
2022-09-07T14:21:17.337Z,97826.60
2022-09-07T14:23:51.388Z,97831.69
2022-09-07T14:26:22.854Z,97832.88
2022-09-07T14:28:57.844Z,97834.89
2022-09-07T14:31:27.372Z,97837.61
2022-09-07T14:33:58.634Z,97839.84
2022-09-07T14:36:45.501Z,97837.55
2022-09-07T14:39:22.009Z,97835.20
2022-09-07T14:41:51.200Z,97831.52
2022-09-07T14:44:40.565Z,97833.02
2022-09-07T14:47:29.199Z,97836.02
2022-09-07T14:50:06.005Z,97835.65
2022-09-07T14:52:43.695Z,97828.25
2022-09-07T14:55:33.755Z,97823.73
2022-09-07T14:58:22.483Z,97821.70
2022-09-07T15:04:00.311Z,97814.05
2022-09-07T15:09:45.325Z,97811.09
2022-09-07T15:12:36.517Z,97806.19
2022-09-07T15:15:18.645Z,97802.23
2022-09-07T15:17:49.311Z,97800.34
2022-09-07T15:20:32.923Z,97807.21
2022-09-07T15:23:04.605Z,97798.54
2022-09-07T15:25:34.668Z,97793.19
2022-09-07T15:28:04.770Z,97793.02
2022-09-07T15:30:34.141Z,97789.05
2022-09-07T15:33:02.410Z,97784.24
2022-09-07T15:35:31.329Z,97783.67
2022-09-07T15:38:04.985Z,97787.48
2022-09-07T15:41:03.775Z,97789.09
2022-09-07T15:43:31.797Z,97792.61
2022-09-07T15:46:00.411Z,97791.89
2022-09-07T15:48:28.655Z,97795.25
2022-09-07T15:52:04.813Z,97800.08
2022-09-07T15:57:48.054Z,97799.70
2022-09-07T15:59:38.051Z,97796.78
2022-09-07T16:03:04.673Z,97798.42
2022-09-07T16:04:57.049Z,97798.47
2022-09-07T16:08:24.891Z,97798.88
2022-09-07T16:10:15.270Z,97796.80
2022-09-07T16:15:34.469Z,97795.77
2022-09-07T16:18:03.386Z,97797.83
2022-09-07T16:20:32.221Z,97798.73
2022-09-07T16:23:17.223Z,97795.30
2022-09-07T16:25:59.656Z,97795.09
2022-09-07T16:28:28.482Z,97793.66
2022-09-07T16:30:58.230Z,97796.77
2022-09-07T16:33:33.034Z,97799.55
2022-09-07T16:36:09.681Z,97805.02
2022-09-07T16:38:44.709Z,97802.99
2022-09-07T16:41:24.199Z,97801.85
2022-09-07T16:43:54.732Z,97808.92
2022-09-07T16:46:26.231Z,97806.14
2022-09-07T16:48:55.459Z,97808.88
2022-09-07T16:51:25.012Z,97816.45
2022-09-07T16:53:56.802Z,97818.77
2022-09-07T16:56:28.066Z,97822.05
2022-09-07T16:59:01.213Z,97823.05
2022-09-07T17:01:32.922Z,97824.21
2022-09-07T17:04:04.509Z,97829.48
2022-09-07T17:06:36.696Z,97836.84
2022-09-07T17:09:05.613Z,97838.38
2022-09-07T17:11:37.523Z,97839.84
2022-09-07T17:14:09.019Z,97842.19
2022-09-07T17:16:41.515Z,97844.70
2022-09-07T17:22:03.744Z,97855.06
2022-09-07T17:24:32.542Z,97857.11
2022-09-07T17:27:02.050Z,97854.92
2022-09-07T17:29:33.838Z,97863.23
2022-09-07T17:34:51.708Z,97865.95
2022-09-07T17:37:20.426Z,97870.15
2022-09-07T17:39:48.510Z,97872.36
2022-09-07T17:42:19.481Z,97873.83
2022-09-07T17:44:52.794Z,97874.94
2022-09-07T17:47:21.615Z,97880.19
2022-09-07T17:49:49.885Z,97884.86
2022-09-07T17:52:18.208Z,97884.58
2022-09-07T17:54:46.283Z,97882.39
2022-09-07T17:57:14.353Z,97889.64
2022-09-07T18:02:38.663Z,97895.66
2022-09-07T18:05:07.497Z,97901.88
2022-09-07T18:07:35.855Z,97902.46
2022-09-07T18:10:05.060Z,97908.13
2022-09-07T18:12:33.342Z,97910.60
2022-09-07T18:15:01.495Z,97912.33
2022-09-07T18:17:29.669Z,97918.95
2022-09-07T18:19:58.056Z,97920.21
2022-09-07T18:22:26.482Z,97924.29
2022-09-07T18:24:54.612Z,97922.31
2022-09-07T18:27:22.879Z,97921.67
2022-09-07T18:29:50.891Z,97927.44
2022-09-07T18:32:19.168Z,97927.25
2022-09-07T18:34:50.495Z,97922.27
2022-09-07T18:37:19.384Z,97922.86
2022-09-07T18:39:49.453Z,97919.23
2022-09-07T18:42:17.812Z,97917.30
2022-09-07T18:47:39.772Z,97915.79
2022-09-07T18:50:09.347Z,97922.20
2022-09-07T18:52:53.522Z,97921.27
2022-09-07T18:55:22.212Z,97922.38
2022-09-07T18:57:50.289Z,97927.56
2022-09-07T19:00:20.035Z,97928.98
2022-09-07T19:02:51.721Z,97933.22
2022-09-07T19:08:08.788Z,97937.99
2022-09-07T19:10:37.362Z,97937.85
2022-09-07T19:13:08.719Z,97936.00
2022-09-07T19:15:38.039Z,97929.08
2022-09-07T19:18:08.014Z,97931.34
2022-09-07T19:20:36.632Z,97926.02
2022-09-07T19:23:06.478Z,97922.09
2022-09-07T19:25:39.851Z,97928.48
2022-09-07T19:28:08.345Z,97926.80
2022-09-07T19:30:36.561Z,97922.92
2022-09-07T19:33:07.258Z,97914.21
2022-09-07T19:35:36.360Z,97913.38
2022-09-07T19:38:04.821Z,97909.52
2022-09-07T19:40:33.064Z,97910.48
2022-09-07T19:43:01.375Z,97913.08
2022-09-07T19:45:29.541Z,97913.88
2022-09-07T19:47:58.036Z,97916.98
2022-09-07T19:50:26.584Z,97925.15
2022-09-07T19:52:54.668Z,97928.52
2022-09-07T19:55:22.886Z,97927.11
2022-09-07T19:57:52.621Z,97928.50
2022-09-07T20:00:23.195Z,97931.95
2022-09-07T20:02:52.468Z,97923.41
2022-09-07T20:05:20.509Z,97922.59
2022-09-07T20:07:48.572Z,97922.08
2022-09-07T20:10:17.705Z,97917.39
2022-09-07T20:12:45.895Z,97916.63
2022-09-07T20:15:15.247Z,97913.54
2022-09-07T20:17:46.111Z,97915.88
2022-09-07T20:20:16.864Z,97920.55
2022-09-07T20:22:45.074Z,97918.67
2022-09-07T20:25:13.770Z,97917.98
2022-09-07T20:27:41.906Z,97921.58
2022-09-07T20:30:11.793Z,97921.20
2022-09-07T20:32:40.083Z,97925.57
2022-09-07T20:35:08.779Z,97927.08
2022-09-07T20:37:37.576Z,97927.43
2022-09-07T20:40:06.491Z,97927.27
2022-09-07T20:42:34.818Z,97931.23
2022-09-07T20:45:03.544Z,97934.18
2022-09-07T20:47:31.627Z,97940.85
2022-09-07T20:49:59.998Z,97941.50
2022-09-07T20:52:27.919Z,97945.59
2022-09-07T20:54:55.832Z,97947.44
2022-09-07T20:57:24.097Z,97945.71
2022-09-07T20:59:52.924Z,97949.18
2022-09-07T21:02:21.167Z,97949.30
2022-09-07T21:04:49.207Z,97949.98
2022-09-07T21:07:17.789Z,97950.50
2022-09-07T21:09:46.014Z,97949.70
2022-09-07T21:12:14.039Z,97948.01
2022-09-07T21:14:42.721Z,97948.98
2022-09-07T21:17:10.967Z,97950.73
2022-09-07T21:19:39.054Z,97954.34
2022-09-07T21:22:07.245Z,97950.98
2022-09-07T21:24:35.325Z,97948.96
2022-09-07T21:27:03.504Z,97952.23
2022-09-07T21:29:31.585Z,97949.70
2022-09-07T21:32:00.153Z,97942.83
2022-09-07T21:34:28.149Z,97944.36
2022-09-07T21:36:58.192Z,97945.63
2022-09-07T21:39:26.232Z,97944.77
2022-09-07T21:41:54.191Z,97941.96
2022-09-07T21:44:22.367Z,97944.27
2022-09-07T21:46:51.308Z,97947.59
2022-09-07T21:49:21.037Z,97943.48
2022-09-07T21:51:49.050Z,97945.23
2022-09-07T21:54:17.040Z,97946.66
2022-09-07T21:56:46.787Z,97944.38
2022-09-07T21:59:17.454Z,97944.66
2022-09-07T22:01:45.424Z,97942.80
2022-09-07T22:04:13.731Z,97944.58
2022-09-07T22:06:41.812Z,97942.36
2022-09-07T22:09:11.053Z,97939.84
2022-09-07T22:11:41.146Z,97935.45
2022-09-07T22:14:14.628Z,97935.28
2022-09-07T22:16:42.790Z,97936.48
2022-09-07T22:19:12.302Z,97937.02
2022-09-07T22:21:40.329Z,97937.42
2022-09-07T22:24:08.510Z,97934.39
2022-09-07T22:26:38.357Z,97933.79
2022-09-07T22:29:10.871Z,97928.14
2022-09-07T22:31:40.162Z,97925.15
2022-09-07T22:34:09.550Z,97926.77
2022-09-07T22:36:43.563Z,97923.77
2022-09-07T22:39:14.979Z,97916.33
2022-09-07T22:41:44.011Z,97917.92
2022-09-07T22:44:15.040Z,97916.64
2022-09-07T22:46:46.290Z,97916.48
2022-09-07T22:49:18.767Z,97920.00
2022-09-07T22:51:46.987Z,97911.98
2022-09-07T22:54:15.236Z,97914.86
2022-09-07T22:56:43.330Z,97911.29
2022-09-07T22:59:12.540Z,97907.63
2022-09-07T23:01:42.062Z,97906.39
2022-09-07T23:04:10.877Z,97907.83
2022-09-07T23:06:41.732Z,97908.52
2022-09-07T23:09:13.250Z,97910.45
2022-09-07T23:11:42.382Z,97908.71
2022-09-07T23:14:19.541Z,97908.23
2022-09-07T23:16:48.104Z,97903.30
2022-09-07T23:19:18.527Z,97903.04
2022-09-07T23:21:47.581Z,97898.84
2022-09-07T23:24:18.187Z,97899.39
2022-09-07T23:26:47.075Z,97894.04
2022-09-07T23:29:15.779Z,97892.21
2022-09-07T23:31:47.044Z,97890.69
2022-09-07T23:34:15.201Z,97894.06
2022-09-07T23:36:43.398Z,97903.50
2022-09-07T23:39:12.472Z,97910.59
2022-09-07T23:41:40.459Z,97912.52
2022-09-07T23:44:08.574Z,97910.91
2022-09-07T23:46:36.706Z,97912.13
2022-09-07T23:49:05.540Z,97909.61
2022-09-07T23:51:33.621Z,97907.52
2022-09-07T23:54:01.620Z,97902.66
2022-09-07T23:56:31.194Z,97900.37
2022-09-07T23:58:59.273Z,97895.90
